Time;durP1;ratioP1;P1;durP2;ratioP2;P2;SDS_P1;SDS_P2;PMS_P1;PMS_P2;Temp;Humidity;BMP_temperature;BMP_pressure;BME280_temperature;BME280_humidity;BME280_pressure;Samples;Min_cycle;Max_cycle;Signal;HPM_P1;HPM_P2
2023/04/03 00:00:17;;;;;;;4.10;1.63;;;;;;;;;;5061826;28;20195;-71
2023/04/03 00:02:43;;;;;;;3.50;1.60;;;;;;;;;;5056704;28;20238;-72
2023/04/03 00:05:09;;;;;;;5.10;1.50;;;;;;;;;;5063303;28;20190;-72
2023/04/03 00:07:36;;;;;;;2.53;1.30;;;;;;;;;;5061045;28;20306;-72
2023/04/03 00:10:02;;;;;;;2.10;1.30;;;;;;;;;;5047549;28;20195;-71
2023/04/03 00:12:28;;;;;;;3.37;1.73;;;;;;;;;;5055071;28;20199;-72
2023/04/03 00:14:54;;;;;;;3.47;1.87;;;;;;;;;;5060675;28;20211;-73
2023/04/03 00:17:22;;;;;;;1.40;1.00;;;;;;;;;;5055847;28;20223;-71
2023/04/03 00:19:48;;;;;;;4.87;1.50;;;;;;;;;;5060602;28;20198;-72
2023/04/03 00:22:14;;;;;;;1.97;1.23;;;;;;;;;;5056526;28;20203;-72
2023/04/03 00:24:41;;;;;;;2.43;1.30;;;;;;;;;;5057578;28;20200;-72
2023/04/03 00:27:07;;;;;;;1.83;1.17;;;;;;;;;;5061606;28;20305;-72
2023/04/03 00:29:33;;;;;;;4.23;1.33;;;;;;;;;;5059556;28;20268;-72
2023/04/03 00:31:59;;;;;;;2.50;1.33;;;;;;;;;;5040736;28;20682;-72
2023/04/03 00:34:27;;;;;;;2.93;1.20;;;;;;;;;;5044821;28;20638;-72
2023/04/03 00:36:53;;;;;;;2.20;1.20;;;;;;;;;;5057764;28;20223;-72
2023/04/03 00:39:20;;;;;;;3.50;1.60;;;;;;;;;;5047114;28;20289;-73
2023/04/03 00:41:46;;;;;;;10.13;1.63;;;;;;;;;;5058276;28;20206;-71
2023/04/03 00:44:20;;;;;;;3.17;1.60;;;;;;;;;;5045972;28;20289;-71
2023/04/03 00:46:46;;;;;;;3.67;1.57;;;;;;;;;;5037606;28;20233;-72
2023/04/03 00:49:12;;;;;;;4.43;1.30;;;;;;;;;;5061934;28;20198;-72
2023/04/03 00:51:40;;;;;;;1.97;1.13;;;;;;;;;;5061041;28;20597;-73
2023/04/03 00:54:07;;;;;;;4.30;1.47;;;;;;;;;;5042850;28;20206;-72
2023/04/03 00:56:34;;;;;;;2.20;1.10;;;;;;;;;;5055353;28;20227;-72
2023/04/03 00:59:02;;;;;;;5.43;1.87;;;;;;;;;;5046804;28;20581;-72
2023/04/03 01:01:30;;;;;;;5.97;1.47;;;;;;;;;;5043346;28;20660;-72
2023/04/03 01:03:57;;;;;;;2.30;1.10;;;;;;;;;;5043750;28;20195;-73
2023/04/03 01:06:26;;;;;;;2.23;1.10;;;;;;;;;;5045454;28;20211;-72
2023/04/03 01:08:55;;;;;;;2.43;0.90;;;;;;;;;;5047950;28;20210;-72
2023/04/03 01:11:22;;;;;;;3.80;1.50;;;;;;;;;;5046549;28;20210;-72
2023/04/03 01:13:49;;;;;;;6.80;1.40;;;;;;;;;;5046023;28;20626;-71
2023/04/03 01:16:15;;;;;;;2.97;1.30;;;;;;;;;;5042985;28;20248;-72
2023/04/03 01:18:42;;;;;;;6.83;1.40;;;;;;;;;;5054489;28;20420;-72
2023/04/03 01:21:17;;;;;;;3.67;1.30;;;;;;;;;;5040362;28;20206;-72
2023/04/03 01:23:48;;;;;;;4.23;1.20;;;;;;;;;;5064618;28;20198;-72
2023/04/03 01:26:17;;;;;;;5.20;1.43;;;;;;;;;;5046908;28;20694;-71
2023/04/03 01:28:43;;;;;;;4.20;1.37;;;;;;;;;;5055450;28;20706;-72
2023/04/03 01:31:13;;;;;;;3.00;1.17;;;;;;;;;;5045394;28;20580;-72
2023/04/03 01:33:42;;;;;;;7.20;1.23;;;;;;;;;;5047097;28;20248;-72
2023/04/03 01:36:09;;;;;;;3.67;1.33;;;;;;;;;;5063127;28;20222;-72
2023/04/03 01:38:35;;;;;;;1.80;1.30;;;;;;;;;;5050927;28;20248;-72
2023/04/03 01:41:02;;;;;;;6.80;1.40;;;;;;;;;;5050466;28;20263;-72
2023/04/03 01:43:29;;;;;;;3.30;1.20;;;;;;;;;;5049437;28;20214;-71
2023/04/03 01:45:55;;;;;;;3.97;1.63;;;;;;;;;;5047543;28;20232;-72
2023/04/03 01:48:22;;;;;;;7.97;1.20;;;;;;;;;;5043501;28;20215;-72
2023/04/03 01:50:49;;;;;;;2.80;1.37;;;;;;;;;;5046795;28;20632;-72
2023/04/03 01:53:16;;;;;;;3.10;1.50;;;;;;;;;;5045010;28;20272;-72
2023/04/03 01:55:42;;;;;;;6.13;1.37;;;;;;;;;;5061464;28;20226;-73
2023/04/03 01:58:08;;;;;;;1.83;1.10;;;;;;;;;;5045233;28;20197;-72
2023/04/03 02:00:34;;;;;;;2.30;1.20;;;;;;;;;;5044640;28;20264;-72
2023/04/03 02:03:01;;;;;;;7.03;2.00;;;;;;;;;;5047880;28;20457;-72
2023/04/03 02:05:29;;;;;;;6.80;1.57;;;;;;;;;;5050771;28;20644;-72
2023/04/03 02:07:58;;;;;;;6.10;1.80;;;;;;;;;;5069220;28;20222;-72
2023/04/03 02:10:25;;;;;;;3.37;1.40;;;;;;;;;;5047141;28;20227;-72
2023/04/03 02:12:51;;;;;;;1.20;1.10;;;;;;;;;;5064927;28;20218;-72
2023/04/03 02:15:19;;;;;;;3.77;1.40;;;;;;;;;;5051970;28;20214;-72
2023/04/03 02:17:45;;;;;;;3.53;1.50;;;;;;;;;;5062659;28;20588;-73
2023/04/03 02:20:11;;;;;;;6.80;1.60;;;;;;;;;;5048360;28;20489;-73
2023/04/03 02:22:38;;;;;;;2.30;1.40;;;;;;;;;;5049063;28;20959;-72
2023/04/03 02:25:06;;;;;;;3.40;1.30;;;;;;;;;;5061497;28;20464;-72
2023/04/03 02:27:32;;;;;;;5.20;1.30;;;;;;;;;;5064434;28;21150;-72
2023/04/03 02:29:58;;;;;;;4.20;1.50;;;;;;;;;;5062808;28;20201;-73
2023/04/03 02:32:25;;;;;;;4.30;1.60;;;;;;;;;;5064106;28;20467;-72
2023/04/03 02:34:51;;;;;;;2.63;1.07;;;;;;;;;;5049754;28;20202;-71
2023/04/03 02:37:17;;;;;;;6.50;1.50;;;;;;;;;;5049496;28;20879;-73
2023/04/03 02:39:46;;;;;;;8.00;1.77;;;;;;;;;;5047789;28;20620;-72
2023/04/03 02:42:14;;;;;;;4.50;1.40;;;;;;;;;;5047994;28;20491;-72
2023/04/03 02:44:40;;;;;;;4.07;1.23;;;;;;;;;;5050009;28;20452;-72
2023/04/03 02:47:06;;;;;;;6.17;1.43;;;;;;;;;;5062748;28;20485;-72
2023/04/03 02:49:33;;;;;;;3.57;1.30;;;;;;;;;;5046507;28;20473;-71
2023/04/03 02:51:59;;;;;;;4.27;1.47;;;;;;;;;;5052173;28;20453;-72
2023/04/03 02:54:28;;;;;;;1.73;1.40;;;;;;;;;;5044587;28;20462;-73
2023/04/03 02:56:55;;;;;;;3.23;0.90;;;;;;;;;;5049782;28;20482;-72
2023/04/03 02:59:23;;;;;;;3.70;1.50;;;;;;;;;;5047676;28;20492;-73
2023/04/03 03:01:49;;;;;;;2.70;1.40;;;;;;;;;;5046118;28;20510;-72
2023/04/03 03:04:16;;;;;;;9.67;1.17;;;;;;;;;;5046988;28;20475;-76
2023/04/03 03:06:42;;;;;;;3.27;1.17;;;;;;;;;;5070004;28;21269;-73
2023/04/03 03:09:08;;;;;;;4.87;1.53;;;;;;;;;;5050197;28;20842;-73
2023/04/03 03:11:34;;;;;;;5.50;1.23;;;;;;;;;;5045260;28;21062;-74
2023/04/03 03:14:02;;;;;;;2.00;1.40;;;;;;;;;;5047900;28;21011;-73
2023/04/03 03:16:30;;;;;;;2.10;1.10;;;;;;;;;;5042276;28;21294;-73
2023/04/03 03:18:57;;;;;;;4.67;1.23;;;;;;;;;;5045377;28;20997;-73
2023/04/03 03:21:23;;;;;;;4.23;1.27;;;;;;;;;;5064893;28;20463;-73
2023/04/03 03:23:49;;;;;;;3.87;1.00;;;;;;;;;;5070975;28;20451;-74
2023/04/03 03:26:15;;;;;;;2.13;1.23;;;;;;;;;;5041348;28;20485;-73
2023/04/03 03:28:42;;;;;;;6.47;1.40;;;;;;;;;;5067084;28;20481;-73
2023/04/03 03:31:09;;;;;;;3.57;1.47;;;;;;;;;;5058580;28;20457;-73
2023/04/03 03:33:39;;;;;;;5.87;1.30;;;;;;;;;;5060266;28;20449;-73
2023/04/03 03:36:05;;;;;;;3.43;1.40;;;;;;;;;;5061756;28;20572;-73
2023/04/03 03:38:31;;;;;;;1.67;1.20;;;;;;;;;;5061870;28;20450;-73
2023/04/03 03:41:00;;;;;;;1.27;0.93;;;;;;;;;;5041674;28;20484;-73
2023/04/03 03:43:26;;;;;;;2.20;1.20;;;;;;;;;;5046868;28;20459;-74
2023/04/03 03:45:54;;;;;;;1.43;1.20;;;;;;;;;;5048622;28;20600;-73
2023/04/03 03:48:22;;;;;;;2.90;1.40;;;;;;;;;;5043828;28;20988;-74
2023/04/03 03:50:50;;;;;;;3.00;1.30;;;;;;;;;;5048781;28;20566;-73
2023/04/03 03:53:19;;;;;;;2.20;1.07;;;;;;;;;;5049271;28;20949;-74
2023/04/03 03:55:45;;;;;;;3.47;1.33;;;;;;;;;;5049904;28;20481;-73
2023/04/03 03:58:12;;;;;;;2.13;1.10;;;;;;;;;;5066081;28;20459;-74
2023/04/03 04:00:38;;;;;;;2.97;1.23;;;;;;;;;;5061207;28;20459;-73
2023/04/03 04:03:05;;;;;;;6.97;1.37;;;;;;;;;;5046439;28;20755;-73
2023/04/03 04:05:31;;;;;;;1.20;1.10;;;;;;;;;;5045609;28;20872;-73
2023/04/03 04:08:01;;;;;;;3.67;1.13;;;;;;;;;;5044245;28;20478;-74
2023/04/03 04:10:28;;;;;;;4.30;1.07;;;;;;;;;;5046379;28;20841;-73
2023/04/03 04:12:55;;;;;;;3.10;1.40;;;;;;;;;;5046760;28;20459;-73
2023/04/03 04:15:25;;;;;;;3.30;1.53;;;;;;;;;;5040363;28;20486;-73
2023/04/03 04:17:53;;;;;;;5.27;1.67;;;;;;;;;;5047684;28;20459;-73
2023/04/03 04:20:19;;;;;;;4.27;1.30;;;;;;;;;;5045048;28;20513;-73
2023/04/03 04:22:47;;;;;;;1.30;1.10;;;;;;;;;;5047092;28;20515;-73
2023/04/03 04:25:15;;;;;;;1.70;1.37;;;;;;;;;;5048995;28;20455;-73
2023/04/03 04:27:42;;;;;;;1.50;1.17;;;;;;;;;;5047376;28;20598;-74
2023/04/03 04:30:09;;;;;;;8.43;1.40;;;;;;;;;;5047218;28;20567;-73
2023/04/03 04:32:35;;;;;;;2.93;1.53;;;;;;;;;;5044702;28;20472;-74
2023/04/03 04:35:01;;;;;;;3.03;1.20;;;;;;;;;;5044925;28;20679;-73
2023/04/03 04:37:30;;;;;;;4.73;1.50;;;;;;;;;;5047847;28;20479;-74
2023/04/03 04:39:57;;;;;;;3.97;1.93;;;;;;;;;;5042609;28;20448;-73
2023/04/03 04:42:25;;;;;;;5.40;1.33;;;;;;;;;;5059947;28;20451;-74
2023/04/03 04:44:51;;;;;;;4.30;1.30;;;;;;;;;;5046388;28;20501;-74
2023/04/03 04:47:19;;;;;;;2.77;1.30;;;;;;;;;;5048006;28;20872;-73
2023/04/03 04:49:47;;;;;;;1.87;1.17;;;;;;;;;;5044238;28;20885;-73
2023/04/03 04:52:14;;;;;;;3.57;1.27;;;;;;;;;;5044884;28;20456;-73
2023/04/03 04:54:41;;;;;;;4.43;1.83;;;;;;;;;;5040955;28;20940;-73
2023/04/03 04:57:08;;;;;;;6.90;3.30;;;;;;;;;;5052930;28;20473;-73
2023/04/03 04:59:36;;;;;;;3.40;2.20;;;;;;;;;;5056231;28;20506;-73
2023/04/03 05:02:03;;;;;;;4.43;2.53;;;;;;;;;;5057796;28;20551;-73
2023/04/03 05:04:30;;;;;;;3.27;1.30;;;;;;;;;;5047677;28;20454;-73
2023/04/03 05:07:03;;;;;;;3.17;1.57;;;;;;;;;;5041991;28;20483;-73
2023/04/03 05:09:31;;;;;;;3.77;1.43;;;;;;;;;;5043182;28;20784;-73
2023/04/03 05:11:58;;;;;;;2.60;1.70;;;;;;;;;;5044902;28;20474;-73
2023/04/03 05:14:27;;;;;;;9.93;1.97;;;;;;;;;;5045144;28;20452;-73
2023/04/03 05:17:00;;;;;;;5.57;1.63;;;;;;;;;;5050789;28;20831;-73
2023/04/03 05:19:30;;;;;;;5.27;1.60;;;;;;;;;;5049927;28;20471;-72
2023/04/03 05:21:58;;;;;;;3.17;1.70;;;;;;;;;;5051325;28;20456;-72
2023/04/03 05:24:25;;;;;;;5.83;1.67;;;;;;;;;;5063043;28;20455;-72
2023/04/03 05:26:52;;;;;;;4.83;1.60;;;;;;;;;;5050335;28;20574;-72
2023/04/03 05:29:18;;;;;;;1.80;1.10;;;;;;;;;;5040213;28;20480;-72
2023/04/03 05:31:46;;;;;;;3.07;1.63;;;;;;;;;;5041931;28;20516;-72
2023/04/03 05:34:14;;;;;;;4.90;1.70;;;;;;;;;;5046793;28;20449;-72
2023/04/03 05:36:42;;;;;;;11.40;1.53;;;;;;;;;;5038357;28;20559;-72
2023/04/03 05:39:14;;;;;;;7.50;1.10;;;;;;;;;;5061846;28;20456;-72
2023/04/03 05:41:43;;;;;;;8.53;1.90;;;;;;;;;;5056191;28;21012;-72
2023/04/03 05:44:09;;;;;;;3.47;1.77;;;;;;;;;;5045142;28;20455;-72
2023/04/03 05:46:36;;;;;;;5.80;1.40;;;;;;;;;;5065118;28;20491;-72
2023/04/03 05:49:06;;;;;;;3.70;1.40;;;;;;;;;;5049123;28;20991;-72
2023/04/03 05:51:36;;;;;;;10.47;2.23;;;;;;;;;;5044590;28;20457;-72
2023/04/03 05:54:19;;;;;;;7.13;1.70;;;;;;;;;;5060087;28;20465;-72
2023/04/03 05:56:46;;;;;;;6.80;1.90;;;;;;;;;;5046699;28;20214;-71
2023/04/03 05:59:13;;;;;;;5.63;1.37;;;;;;;;;;5047884;28;20190;-72
2023/04/03 06:01:40;;;;;;;1.80;1.50;;;;;;;;;;5042225;28;20558;-72
2023/04/03 06:04:08;;;;;;;3.73;1.60;;;;;;;;;;5054181;28;20455;-72
2023/04/03 06:06:47;;;;;;;6.00;1.30;;;;;;;;;;5044025;28;20225;-71
2023/04/03 06:09:13;;;;;;;5.40;1.63;;;;;;;;;;5047615;28;20527;-72
2023/04/03 06:11:40;;;;;;;4.07;1.37;;;;;;;;;;5046344;28;20199;-72
2023/04/03 06:14:06;;;;;;;1.97;1.10;;;;;;;;;;5062068;28;20912;-72
2023/04/03 06:16:35;;;;;;;5.00;1.53;;;;;;;;;;5049154;28;20216;-72
2023/04/03 06:19:02;;;;;;;3.03;1.27;;;;;;;;;;5049908;28;20755;-71
2023/04/03 06:21:28;;;;;;;3.70;1.23;;;;;;;;;;5058470;28;20289;-71
2023/04/03 06:23:56;;;;;;;2.87;1.10;;;;;;;;;;5060398;28;20195;-72
2023/04/03 06:26:22;;;;;;;1.33;0.90;;;;;;;;;;5061281;28;20253;-72
2023/04/03 06:28:48;;;;;;;3.50;1.20;;;;;;;;;;5063495;28;20600;-72
2023/04/03 06:31:15;;;;;;;1.80;1.00;;;;;;;;;;5048428;28;20214;-72
2023/04/03 06:33:41;;;;;;;5.80;1.07;;;;;;;;;;5062794;28;20211;-71
2023/04/03 06:36:08;;;;;;;0.90;0.77;;;;;;;;;;5070495;28;20219;-72
2023/04/03 06:38:35;;;;;;;3.67;1.17;;;;;;;;;;5060896;28;20285;-72
2023/04/03 06:41:03;;;;;;;5.63;1.47;;;;;;;;;;5063822;28;20727;-71
2023/04/03 06:43:30;;;;;;;3.80;1.00;;;;;;;;;;5060321;28;20194;-71
2023/04/03 06:45:57;;;;;;;3.60;1.00;;;;;;;;;;5059760;28;20288;-72
2023/04/03 06:48:23;;;;;;;1.73;1.00;;;;;;;;;;5064740;28;20198;-71
2023/04/03 06:50:50;;;;;;;3.17;0.90;;;;;;;;;;5060614;28;20476;-71
2023/04/03 06:53:16;;;;;;;1.57;0.97;;;;;;;;;;5061967;28;20206;-71
2023/04/03 06:55:42;;;;;;;3.87;1.23;;;;;;;;;;5061077;28;20231;-72
2023/04/03 06:58:10;;;;;;;2.60;1.30;;;;;;;;;;5062550;28;20352;-72
2023/04/03 07:00:36;;;;;;;6.00;0.87;;;;;;;;;;5063932;28;21578;-73
2023/04/03 07:03:02;;;;;;;2.73;1.10;;;;;;;;;;5063296;28;20687;-72
2023/04/03 07:05:28;;;;;;;2.93;1.00;;;;;;;;;;5063615;28;20207;-72
2023/04/03 07:07:55;;;;;;;4.40;0.90;;;;;;;;;;5063679;28;20199;-72
2023/04/03 07:10:21;;;;;;;1.73;0.73;;;;;;;;;;5069990;28;20233;-72
2023/04/03 07:12:47;;;;;;;1.20;0.77;;;;;;;;;;5063563;28;20218;-71
2023/04/03 07:15:15;;;;;;;3.43;0.97;;;;;;;;;;5069582;28;20194;-71
2023/04/03 07:17:41;;;;;;;5.37;0.90;;;;;;;;;;5066650;28;20238;-72
2023/04/03 07:20:08;;;;;;;2.03;1.13;;;;;;;;;;5065972;28;20199;-72
2023/04/03 07:22:34;;;;;;;2.63;1.07;;;;;;;;;;5070057;28;20199;-71
2023/04/03 07:25:01;;;;;;;3.63;1.20;;;;;;;;;;5073619;28;20241;-72
2023/04/03 07:27:27;;;;;;;8.63;1.33;;;;;;;;;;5072928;28;20221;-72
2023/04/03 07:29:55;;;;;;;1.33;0.87;;;;;;;;;;5069319;28;20239;-71
2023/04/03 07:32:23;;;;;;;1.10;1.00;;;;;;;;;;5061449;28;20697;-71
2023/04/03 07:34:49;;;;;;;1.60;0.80;;;;;;;;;;5063126;28;20200;-71
2023/04/03 07:37:16;;;;;;;1.17;1.07;;;;;;;;;;5069087;28;20460;-71
2023/04/03 07:39:44;;;;;;;4.20;0.90;;;;;;;;;;5071399;28;20289;-71
2023/04/03 07:42:12;;;;;;;5.30;1.13;;;;;;;;;;5069431;28;20237;-71
2023/04/03 07:44:38;;;;;;;1.60;0.77;;;;;;;;;;5067178;28;20214;-71
2023/04/03 07:47:04;;;;;;;4.43;1.00;;;;;;;;;;5061065;28;20230;-71
2023/04/03 07:49:32;;;;;;;1.80;0.80;;;;;;;;;;5067026;28;20217;-72
2023/04/03 07:51:59;;;;;;;4.00;0.80;;;;;;;;;;5067117;28;20289;-71
2023/04/03 07:54:25;;;;;;;1.00;0.73;;;;;;;;;;5068588;28;20614;-72
2023/04/03 07:56:51;;;;;;;0.90;0.70;;;;;;;;;;5067490;28;20308;-71
2023/04/03 07:59:17;;;;;;;1.17;0.80;;;;;;;;;;5062373;28;20248;-72
2023/04/03 08:01:43;;;;;;;2.57;0.80;;;;;;;;;;5048097;28;20202;-72
2023/04/03 08:04:10;;;;;;;2.00;0.93;;;;;;;;;;5061823;28;20193;-72
2023/04/03 08:06:37;;;;;;;1.43;0.93;;;;;;;;;;5063623;28;20631;-72
2023/04/03 08:09:04;;;;;;;3.90;1.03;;;;;;;;;;5055353;28;20199;-71
2023/04/03 08:11:31;;;;;;;1.10;0.83;;;;;;;;;;5056097;28;20256;-71
2023/04/03 08:13:57;;;;;;;1.50;0.90;;;;;;;;;;5065471;28;20585;-71
2023/04/03 08:16:26;;;;;;;3.87;1.47;;;;;;;;;;5061367;28;20567;-71
2023/04/03 08:18:53;;;;;;;1.80;1.00;;;;;;;;;;5064232;28;20229;-71
2023/04/03 08:21:19;;;;;;;3.63;0.63;;;;;;;;;;5065765;28;20195;-71
2023/04/03 08:23:49;;;;;;;3.63;1.00;;;;;;;;;;5064945;28;20191;-71
2023/04/03 08:26:16;;;;;;;3.20;0.70;;;;;;;;;;5065330;28;20225;-72
2023/04/03 08:28:42;;;;;;;2.47;0.80;;;;;;;;;;5061773;28;20663;-72
2023/04/03 08:31:11;;;;;;;4.07;1.27;;;;;;;;;;5057701;28;20203;-71
2023/04/03 08:33:38;;;;;;;3.13;0.80;;;;;;;;;;5038952;28;20203;-71
2023/04/03 08:36:05;;;;;;;1.73;0.70;;;;;;;;;;5062822;28;20214;-71
2023/04/03 08:38:32;;;;;;;1.50;0.77;;;;;;;;;;5068065;28;20217;-71
2023/04/03 08:41:05;;;;;;;1.73;0.90;;;;;;;;;;5061833;28;20199;-71
2023/04/03 08:43:37;;;;;;;3.33;0.90;;;;;;;;;;5058470;28;20205;-71
2023/04/03 08:46:05;;;;;;;1.07;0.73;;;;;;;;;;5067123;28;20232;-72
2023/04/03 08:48:33;;;;;;;1.73;1.00;;;;;;;;;;5064727;28;20205;-72
2023/04/03 08:51:01;;;;;;;3.20;1.33;;;;;;;;;;5058126;28;20636;-71
2023/04/03 08:53:32;;;;;;;0.73;0.53;;;;;;;;;;5070463;28;20209;-72
2023/04/03 08:55:59;;;;;;;2.93;0.70;;;;;;;;;;5060396;28;20215;-71
2023/04/03 08:58:28;;;;;;;1.73;0.57;;;;;;;;;;5065283;28;20206;-71
2023/04/03 09:00:56;;;;;;;2.47;0.80;;;;;;;;;;5060923;28;20615;-72
2023/04/03 09:03:23;;;;;;;1.73;1.03;;;;;;;;;;5060542;28;20254;-72
2023/04/03 09:05:51;;;;;;;1.20;0.83;;;;;;;;;;5061751;28;20225;-71
2023/04/03 09:08:27;;;;;;;1.67;0.87;;;;;;;;;;5063453;28;20208;-71
2023/04/03 09:10:59;;;;;;;1.23;0.73;;;;;;;;;;5060323;28;20214;-71
2023/04/03 09:13:29;;;;;;;1.77;0.73;;;;;;;;;;5047026;28;20194;-71
2023/04/03 09:15:56;;;;;;;4.33;1.07;;;;;;;;;;5064944;28;20220;-71
2023/04/03 09:18:26;;;;;;;1.00;0.60;;;;;;;;;;5058367;28;20206;-71
2023/04/03 09:20:56;;;;;;;0.80;0.70;;;;;;;;;;5062190;28;20266;-71
2023/04/03 09:23:25;;;;;;;1.83;0.97;;;;;;;;;;5062506;28;20202;-72
2023/04/03 09:25:54;;;;;;;0.67;0.67;;;;;;;;;;5065508;28;20218;-72
2023/04/03 09:28:20;;;;;;;2.57;0.80;;;;;;;;;;5056838;28;20210;-72
2023/04/03 09:30:47;;;;;;;1.17;0.70;;;;;;;;;;5062169;28;20233;-72
2023/04/03 09:33:15;;;;;;;2.10;1.00;;;;;;;;;;5042682;28;20219;-72
2023/04/03 09:35:41;;;;;;;3.60;0.97;;;;;;;;;;5065990;28;20238;-72
2023/04/03 09:38:18;;;;;;;0.83;0.60;;;;;;;;;;5064592;28;20209;-71
2023/04/03 09:40:45;;;;;;;1.77;0.97;;;;;;;;;;5056052;28;20182;-71
2023/04/03 09:43:35;;;;;;;1.67;0.80;;;;;;;;;;5061781;28;20318;-71
2023/04/03 09:46:20;;;;;;;0.80;0.80;;;;;;;;;;5040225;28;21006;-72
2023/04/03 09:48:51;;;;;;;2.30;0.80;;;;;;;;;;5056564;28;20569;-71
2023/04/03 09:51:18;;;;;;;1.53;1.03;;;;;;;;;;5057749;28;20590;-71
2023/04/03 09:53:45;;;;;;;1.00;0.80;;;;;;;;;;5067565;28;20205;-71
2023/04/03 09:56:20;;;;;;;2.87;0.90;;;;;;;;;;5062025;28;20968;-71
2023/04/03 09:58:48;;;;;;;1.57;1.00;;;;;;;;;;5064998;28;20201;-72
2023/04/03 10:01:24;;;;;;;1.77;0.57;;;;;;;;;;5063214;28;20209;-71
2023/04/03 10:04:02;;;;;;;2.00;0.67;;;;;;;;;;5066684;28;20213;-72
2023/04/03 10:06:31;;;;;;;1.30;0.80;;;;;;;;;;5065052;28;20681;-71
2023/04/03 10:08:59;;;;;;;2.13;0.80;;;;;;;;;;5068685;28;20198;-72
2023/04/03 10:11:26;;;;;;;3.80;0.90;;;;;;;;;;5066176;28;20241;-72
2023/04/03 10:13:54;;;;;;;1.10;0.70;;;;;;;;;;5066227;28;20195;-72
2023/04/03 10:16:24;;;;;;;1.83;0.90;;;;;;;;;;5064179;28;20630;-71
2023/04/03 10:18:56;;;;;;;2.37;1.00;;;;;;;;;;5044330;28;20206;-72
2023/04/03 10:21:30;;;;;;;1.03;0.80;;;;;;;;;;5069943;28;20586;-72
2023/04/03 10:24:00;;;;;;;2.17;0.90;;;;;;;;;;5062686;28;20664;-71
2023/04/03 10:26:30;;;;;;;1.83;0.70;;;;;;;;;;5066062;28;20700;-71
2023/04/03 10:28:58;;;;;;;2.77;1.00;;;;;;;;;;5044845;28;20310;-71
2023/04/03 10:31:30;;;;;;;0.53;0.53;;;;;;;;;;5064803;28;20215;-71
2023/04/03 10:34:02;;;;;;;1.97;0.97;;;;;;;;;;5061881;28;20214;-72
2023/04/03 10:36:34;;;;;;;1.40;0.80;;;;;;;;;;5062805;28;20317;-71
2023/04/03 10:39:03;;;;;;;1.93;0.50;;;;;;;;;;5060100;28;20208;-72
2023/04/03 10:41:35;;;;;;;2.17;0.90;;;;;;;;;;5065927;28;20203;-71
2023/04/03 10:44:07;;;;;;;1.07;0.90;;;;;;;;;;5066631;28;20205;-71
2023/04/03 10:46:37;;;;;;;1.07;0.77;;;;;;;;;;5077408;22;20253;-70
2023/04/03 10:49:12;;;;;;;3.10;0.70;;;;;;;;;;5063628;28;20195;-71
2023/04/03 10:51:41;;;;;;;0.97;0.87;;;;;;;;;;5067230;28;20292;-70
2023/04/03 10:54:10;;;;;;;1.50;0.70;;;;;;;;;;5063817;28;20199;-71
2023/04/03 10:56:38;;;;;;;0.93;0.60;;;;;;;;;;5057367;28;20234;-70
2023/04/03 10:59:13;;;;;;;0.90;0.50;;;;;;;;;;5056318;28;20462;-71
2023/04/03 11:01:43;;;;;;;0.93;0.60;;;;;;;;;;5057842;28;20202;-71
2023/04/03 11:04:10;;;;;;;1.43;0.80;;;;;;;;;;5066076;28;20194;-71
2023/04/03 11:06:39;;;;;;;1.33;0.80;;;;;;;;;;5065860;28;20729;-70
2023/04/03 11:09:10;;;;;;;1.97;0.80;;;;;;;;;;5062212;28;20206;-71
2023/04/03 11:11:39;;;;;;;1.20;0.80;;;;;;;;;;5058899;28;20517;-70
2023/04/03 11:14:11;;;;;;;1.90;0.90;;;;;;;;;;5064380;28;20201;-70
2023/04/03 11:16:41;;;;;;;1.63;0.90;;;;;;;;;;5058921;28;20643;-70
2023/04/03 11:19:12;;;;;;;1.10;0.90;;;;;;;;;;5061329;28;20298;-70
2023/04/03 11:21:41;;;;;;;2.10;0.90;;;;;;;;;;5060543;28;20206;-71
2023/04/03 11:24:16;;;;;;;3.17;0.70;;;;;;;;;;5058136;28;20210;-70
2023/04/03 11:26:45;;;;;;;3.47;1.40;;;;;;;;;;5060000;28;20222;-68
2023/04/03 11:29:15;;;;;;;1.00;0.70;;;;;;;;;;5062774;28;20205;-69
2023/04/03 11:31:47;;;;;;;1.97;1.00;;;;;;;;;;5045701;28;21583;-70
2023/04/03 11:34:20;;;;;;;3.70;1.13;;;;;;;;;;5049311;28;20261;-71
2023/04/03 11:36:48;;;;;;;1.23;0.80;;;;;;;;;;5060079;28;20549;-70
2023/04/03 11:39:20;;;;;;;1.53;0.90;;;;;;;;;;5064310;28;20583;-71
2023/04/03 11:41:46;;;;;;;1.73;0.80;;;;;;;;;;5056914;28;20202;-71
2023/04/03 11:44:30;;;;;;;0.90;0.70;;;;;;;;;;5058543;28;20445;-70
2023/04/03 11:46:57;;;;;;;4.73;1.10;;;;;;;;;;5050482;28;20258;-71
2023/04/03 11:49:41;;;;;;;1.37;0.80;;;;;;;;;;5038092;28;20203;-71
2023/04/03 11:52:11;;;;;;;1.67;0.77;;;;;;;;;;5042869;28;20211;-70
2023/04/03 11:54:47;;;;;;;1.20;0.70;;;;;;;;;;5037126;28;20207;-71
2023/04/03 11:57:32;;;;;;;2.70;0.87;;;;;;;;;;5042260;28;20223;-71
2023/04/03 11:59:58;;;;;;;1.70;0.90;;;;;;;;;;5046708;28;20374;-70
2023/04/03 12:02:37;;;;;;;3.73;0.93;;;;;;;;;;5043432;28;20222;-69
2023/04/03 12:05:22;;;;;;;2.03;0.70;;;;;;;;;;5042323;28;20529;-70
2023/04/03 12:08:16;;;;;;;1.20;0.80;;;;;;;;;;5041197;28;20219;-70
2023/04/03 12:10:42;;;;;;;1.63;0.70;;;;;;;;;;5042252;28;20396;-71
2023/04/03 12:13:16;;;;;;;1.60;0.70;;;;;;;;;;5035338;28;20196;-70
2023/04/03 12:15:48;;;;;;;1.10;0.70;;;;;;;;;;5039399;28;20668;-71
2023/04/03 12:18:47;;;;;;;3.00;1.30;;;;;;;;;;5024240;28;20230;-70
2023/04/03 12:21:18;;;;;;;3.27;1.00;;;;;;;;;;5038134;28;20279;-70
2023/04/03 12:23:58;;;;;;;0.80;0.70;;;;;;;;;;5037968;28;20555;-70
2023/04/03 12:26:27;;;;;;;4.53;1.50;;;;;;;;;;5040298;28;20219;-71
2023/04/03 12:28:55;;;;;;;1.97;0.97;;;;;;;;;;5040902;28;20232;-71
2023/04/03 12:31:24;;;;;;;3.70;1.10;;;;;;;;;;5038287;28;20720;-71
2023/04/03 12:33:59;;;;;;;1.60;0.90;;;;;;;;;;5025265;28;20196;-69
2023/04/03 12:36:29;;;;;;;2.23;1.00;;;;;;;;;;5039798;28;20250;-71
2023/04/03 12:39:07;;;;;;;2.03;1.13;;;;;;;;;;5042743;28;20583;-70
2023/04/03 12:41:38;;;;;;;1.37;0.73;;;;;;;;;;5038493;28;20314;-70
2023/04/03 12:44:19;;;;;;;4.73;1.37;;;;;;;;;;5042004;28;20575;-70
2023/04/03 12:46:47;;;;;;;1.67;0.90;;;;;;;;;;5047640;28;20697;-71
2023/04/03 12:49:21;;;;;;;0.97;0.80;;;;;;;;;;5047772;28;20570;-71
2023/04/03 12:51:48;;;;;;;4.57;1.40;;;;;;;;;;5061423;28;20202;-71
2023/04/03 12:54:17;;;;;;;3.57;1.40;;;;;;;;;;5061622;28;20226;-71
2023/04/03 12:56:43;;;;;;;5.40;0.90;;;;;;;;;;5045086;28;20249;-71
2023/04/03 12:59:14;;;;;;;1.53;0.90;;;;;;;;;;5051786;28;20202;-71
2023/04/03 13:01:40;;;;;;;1.27;0.73;;;;;;;;;;5065305;28;20190;-70
2023/04/03 13:04:07;;;;;;;2.80;1.00;;;;;;;;;;5062753;28;20210;-69
2023/04/03 13:06:35;;;;;;;5.53;2.03;;;;;;;;;;5060135;28;20226;-71
2023/04/03 13:09:02;;;;;;;1.07;0.87;;;;;;;;;;5062219;28;20537;-71
2023/04/03 13:11:32;;;;;;;0.87;0.70;;;;;;;;;;5058698;28;20223;-71
2023/04/03 13:13:58;;;;;;;0.73;0.63;;;;;;;;;;5056717;28;20195;-70
2023/04/03 13:16:25;;;;;;;2.03;0.90;;;;;;;;;;5058213;28;20237;-71
2023/04/03 13:18:51;;;;;;;1.33;0.90;;;;;;;;;;5060258;28;20205;-71
2023/04/03 13:21:19;;;;;;;0.77;0.70;;;;;;;;;;5060569;28;20194;-70
2023/04/03 13:23:46;;;;;;;1.23;0.77;;;;;;;;;;5061396;28;20195;-71
2023/04/03 13:26:13;;;;;;;1.73;1.00;;;;;;;;;;5044849;28;20222;-70
2023/04/03 13:28:41;;;;;;;2.57;1.23;;;;;;;;;;5062076;28;20198;-71
2023/04/03 13:31:10;;;;;;;1.53;0.90;;;;;;;;;;5065066;28;20223;-70
2023/04/03 13:33:38;;;;;;;1.20;1.07;;;;;;;;;;5049528;28;20202;-70
2023/04/03 13:36:08;;;;;;;1.30;1.03;;;;;;;;;;5052502;28;20230;-70
2023/04/03 13:38:36;;;;;;;2.13;0.83;;;;;;;;;;5060240;28;20635;-71
2023/04/03 13:41:04;;;;;;;0.97;0.80;;;;;;;;;;5065106;28;20194;-70
2023/04/03 13:43:31;;;;;;;3.03;0.90;;;;;;;;;;5048736;28;20209;-70
2023/04/03 13:46:05;;;;;;;1.40;0.90;;;;;;;;;;5041963;28;23523;-71
2023/04/03 13:48:39;;;;;;;1.57;0.63;;;;;;;;;;5036769;28;20203;-70
2023/04/03 13:51:06;;;;;;;1.07;0.60;;;;;;;;;;5040141;28;20210;-71
2023/04/03 13:53:34;;;;;;;1.20;0.80;;;;;;;;;;5036891;28;20204;-70
2023/04/03 13:56:05;;;;;;;2.83;1.90;;;;;;;;;;5039970;28;20203;-69
2023/04/03 13:58:32;;;;;;;0.77;0.67;;;;;;;;;;5040200;28;20579;-71
2023/04/03 14:01:02;;;;;;;0.70;0.70;;;;;;;;;;5023500;28;20211;-70
2023/04/03 14:03:33;;;;;;;0.60;0.60;;;;;;;;;;5039999;28;20688;-71
2023/04/03 14:06:00;;;;;;;1.47;0.70;;;;;;;;;;5037048;28;20204;-69
2023/04/03 14:08:27;;;;;;;0.77;0.77;;;;;;;;;;5042951;28;20286;-69
2023/04/03 14:10:54;;;;;;;0.73;0.60;;;;;;;;;;5043108;28;20258;-71
2023/04/03 14:13:21;;;;;;;2.17;0.70;;;;;;;;;;5040287;28;20199;-70
2023/04/03 14:15:48;;;;;;;1.70;0.87;;;;;;;;;;5035785;28;20219;-70
2023/04/03 14:18:15;;;;;;;0.67;0.60;;;;;;;;;;5036984;28;20227;-71
2023/04/03 14:20:43;;;;;;;1.80;0.70;;;;;;;;;;5035933;28;20210;-70
2023/04/03 14:23:10;;;;;;;0.90;0.70;;;;;;;;;;5040335;28;20201;-71
2023/04/03 14:25:37;;;;;;;0.90;0.70;;;;;;;;;;5042344;28;20201;-69
2023/04/03 14:28:13;;;;;;;2.83;1.20;;;;;;;;;;5037175;28;20619;-70
2023/04/03 14:30:39;;;;;;;1.03;0.90;;;;;;;;;;5019322;28;20204;-70
2023/04/03 14:33:06;;;;;;;0.97;0.93;;;;;;;;;;5034248;28;20763;-70
2023/04/03 14:35:33;;;;;;;3.30;0.93;;;;;;;;;;5033573;28;20211;-71
2023/04/03 14:38:00;;;;;;;1.13;0.97;;;;;;;;;;5035504;28;20330;-71
2023/04/03 14:40:27;;;;;;;2.63;0.80;;;;;;;;;;5035982;28;20675;-70
2023/04/03 14:42:54;;;;;;;1.20;0.90;;;;;;;;;;5034991;28;20185;-71
2023/04/03 14:45:22;;;;;;;2.60;1.27;;;;;;;;;;5031794;28;20203;-70
2023/04/03 14:47:50;;;;;;;1.87;1.00;;;;;;;;;;5037541;28;20737;-69
2023/04/03 14:50:17;;;;;;;1.20;0.90;;;;;;;;;;5039882;28;20735;-70